createdAt,value
2019-05-05T00:02:04.573Z,17.03
2019-05-05T00:04:49.663Z,9.40
2019-05-05T00:07:19.785Z,15.90
2019-05-05T00:09:48.694Z,15.63
2019-05-05T00:12:21.900Z,14.60
2019-05-05T00:15:07.901Z,10.33
2019-05-05T00:17:36.377Z,15.50
2019-05-05T00:20:07.258Z,11.93
2019-05-05T00:22:35.657Z,11.93
2019-05-05T00:25:05.465Z,13.10
2019-05-05T00:27:34.662Z,14.77
2019-05-05T00:30:05.402Z,12.03
2019-05-05T00:32:34.882Z,11.90
2019-05-05T00:35:04.415Z,11.93
2019-05-05T00:37:34.601Z,16.47
2019-05-05T00:40:05.008Z,11.70
2019-05-05T00:42:35.193Z,11.00
2019-05-05T00:45:07.262Z,17.13
2019-05-05T00:47:54.408Z,12.90
2019-05-05T00:50:25.091Z,12.00
2019-05-05T00:52:55.075Z,13.13
2019-05-05T00:55:24.477Z,15.30
2019-05-05T00:57:54.770Z,12.67
2019-05-05T01:00:29.366Z,11.53
2019-05-05T01:02:57.946Z,14.23
2019-05-05T01:05:28.023Z,13.70
2019-05-05T01:07:56.417Z,11.47
2019-05-05T01:10:24.985Z,11.67
2019-05-05T01:12:54.445Z,12.73
2019-05-05T01:15:25.306Z,12.00
2019-05-05T01:17:55.163Z,12.40
2019-05-05T01:20:25.001Z,14.30
2019-05-05T01:22:55.236Z,12.03
2019-05-05T01:25:25.366Z,15.73
2019-05-05T01:27:54.587Z,17.00
2019-05-05T01:30:25.007Z,13.87
2019-05-05T01:32:56.052Z,20.00
2019-05-05T01:35:24.941Z,11.87
2019-05-05T01:37:55.095Z,13.30
2019-05-05T01:40:25.146Z,13.90
2019-05-05T01:42:54.732Z,14.20
2019-05-05T01:45:24.244Z,17.07
2019-05-05T01:47:54.544Z,18.77
2019-05-05T01:50:24.866Z,20.80
2019-05-05T01:52:55.005Z,14.73
2019-05-05T01:55:25.227Z,16.30
2019-05-05T01:57:54.406Z,13.17
2019-05-05T02:00:22.866Z,17.10
2019-05-05T02:02:51.364Z,14.50
2019-05-05T02:05:19.787Z,16.70
2019-05-05T02:07:48.206Z,12.00
2019-05-05T02:10:16.912Z,13.58
2019-05-05T02:12:45.439Z,16.50
2019-05-05T02:15:15.053Z,20.37
2019-05-05T02:17:44.540Z,24.52
2019-05-05T02:20:28.612Z,14.10
2019-05-05T02:22:46.327Z,21.70
2019-05-05T02:25:14.749Z,14.80
2019-05-05T02:27:44.675Z,17.85
2019-05-05T02:30:35.860Z,15.58
2019-05-05T02:33:06.306Z,16.73
2019-05-05T02:35:35.361Z,21.17
2019-05-05T02:38:06.486Z,17.23
2019-05-05T02:40:35.190Z,16.27
2019-05-05T02:43:05.488Z,18.70
2019-05-05T02:45:48.047Z,16.73
2019-05-05T02:48:18.443Z,22.07
2019-05-05T02:51:02.237Z,17.53
2019-05-05T02:53:39.318Z,18.47
2019-05-05T02:56:11.443Z,14.20
2019-05-05T02:58:40.397Z,15.53
2019-05-05T03:01:24.396Z,16.25
2019-05-05T03:03:54.373Z,17.92
2019-05-05T03:06:23.767Z,11.20
2019-05-05T03:08:54.301Z,19.93
2019-05-05T03:11:23.706Z,20.83
2019-05-05T03:13:55.241Z,11.87
2019-05-05T03:16:26.713Z,15.17
2019-05-05T03:18:55.970Z,19.00
2019-05-05T03:21:25.223Z,14.07
2019-05-05T03:23:54.791Z,20.03
2019-05-05T03:26:23.757Z,12.73
2019-05-05T03:28:54.557Z,16.93
2019-05-05T03:31:26.178Z,17.13
2019-05-05T03:33:55.138Z,19.00
2019-05-05T03:36:24.509Z,18.43
2019-05-05T03:38:54.891Z,18.43
2019-05-05T03:41:27.008Z,20.37
2019-05-05T03:44:10.784Z,15.32
2019-05-05T03:46:39.521Z,13.90
2019-05-05T03:49:07.998Z,12.37
2019-05-05T03:51:38.000Z,14.90
2019-05-05T03:54:07.138Z,12.47
2019-05-05T03:56:35.711Z,14.55
2019-05-05T03:59:05.037Z,14.40
2019-05-05T04:01:37.024Z,20.17
2019-05-05T04:04:25.189Z,16.60
2019-05-05T04:06:57.676Z,16.90
2019-05-05T04:09:26.248Z,23.43
2019-05-05T04:11:55.119Z,21.13
2019-05-05T04:14:24.948Z,18.37
2019-05-05T04:17:03.690Z,25.00
2019-05-05T04:19:43.627Z,24.63
2019-05-05T04:22:13.533Z,21.13
2019-05-05T04:24:43.605Z,21.57
2019-05-05T04:27:14.391Z,20.93
2019-05-05T04:29:43.960Z,20.10
2019-05-05T04:32:14.101Z,21.90
2019-05-05T04:34:43.840Z,23.93
2019-05-05T04:37:14.654Z,24.17
2019-05-05T04:39:44.343Z,41.63
2019-05-05T04:42:14.043Z,70.37
2019-05-05T04:44:44.627Z,142.10
2019-05-05T04:47:16.867Z,50.30
2019-05-05T04:49:49.887Z,30.62
2019-05-05T04:52:28.999Z,31.03
2019-05-05T04:54:57.425Z,25.88
2019-05-05T04:57:25.914Z,34.23
2019-05-05T04:59:54.350Z,28.97
2019-05-05T05:02:34.110Z,25.97
2019-05-05T05:05:04.390Z,25.80
2019-05-05T05:07:34.452Z,30.53
2019-05-05T05:10:04.450Z,36.40
2019-05-05T05:12:34.181Z,27.47
2019-05-05T05:15:04.322Z,28.10
2019-05-05T05:17:36.887Z,24.97
2019-05-05T05:20:08.876Z,30.63
2019-05-05T05:22:37.280Z,31.50
2019-05-05T05:25:06.461Z,47.90
2019-05-05T05:27:34.963Z,39.00
2019-05-05T05:30:04.677Z,36.27
2019-05-05T05:32:34.019Z,41.43
2019-05-05T05:35:03.724Z,47.03
2019-05-05T05:37:34.108Z,50.43
2019-05-05T05:40:09.591Z,62.43
2019-05-05T05:42:38.007Z,54.50
2019-05-05T05:45:17.984Z,34.80
2019-05-05T05:47:59.927Z,130.27
2019-05-05T05:50:33.946Z,57.70
2019-05-05T05:53:04.576Z,45.00
2019-05-05T05:55:34.320Z,70.30
2019-05-05T05:58:04.780Z,157.83
2019-05-05T06:00:34.329Z,57.93
2019-05-05T06:03:03.888Z,90.10
2019-05-05T06:05:34.282Z,57.53
2019-05-05T06:10:35.152Z,107.47
2019-05-05T06:13:04.227Z,369.43
2019-05-05T06:15:33.760Z,260.97
2019-05-05T06:18:04.454Z,206.77
2019-05-05T06:20:34.458Z,150.50
2019-05-05T06:23:04.086Z,77.57
2019-05-05T06:25:34.219Z,73.10
2019-05-05T06:28:04.255Z,94.52
2019-05-05T06:30:33.636Z,103.10
2019-05-05T06:33:04.619Z,85.37
2019-05-05T06:35:33.854Z,82.47
2019-05-05T06:38:04.490Z,96.17
2019-05-05T06:40:34.253Z,80.70
2019-05-05T06:43:07.276Z,96.43
2019-05-05T06:45:44.354Z,94.57
2019-05-05T06:48:13.578Z,73.87
2019-05-05T06:50:43.711Z,70.67
2019-05-05T06:53:13.566Z,62.90
2019-05-05T06:55:44.311Z,73.67
2019-05-05T06:58:13.648Z,54.37
2019-05-05T07:00:43.929Z,65.97
2019-05-05T07:03:13.897Z,61.53
2019-05-05T07:05:43.701Z,62.83
2019-05-05T07:08:13.808Z,66.43
2019-05-05T07:10:44.256Z,77.83
2019-05-05T07:13:13.967Z,80.47
2019-05-05T07:15:43.799Z,75.32
2019-05-05T07:18:14.265Z,66.10
2019-05-05T07:20:44.092Z,77.60
2019-05-05T07:23:14.488Z,65.63
2019-05-05T07:25:45.673Z,81.23
2019-05-05T07:28:14.659Z,74.63
2019-05-05T07:30:44.236Z,54.77
2019-05-05T07:33:14.713Z,69.30
2019-05-05T07:35:56.716Z,63.80
2019-05-05T07:38:20.746Z,71.60
2019-05-05T07:40:49.180Z,46.97
2019-05-05T07:43:18.532Z,59.38
2019-05-05T07:45:47.018Z,59.53
2019-05-05T07:48:15.415Z,51.30
2019-05-05T07:50:58.656Z,46.13
2019-05-05T07:53:17.661Z,55.77
2019-05-05T07:55:44.470Z,54.23
2019-05-05T07:58:13.941Z,48.58
2019-05-05T08:00:43.682Z,50.07
2019-05-05T08:03:14.230Z,54.67
2019-05-05T08:05:44.246Z,50.97
2019-05-05T08:08:13.900Z,45.60
2019-05-05T08:10:43.814Z,48.90
2019-05-05T08:13:14.096Z,55.40
2019-05-05T08:15:56.305Z,52.17
2019-05-05T08:18:28.318Z,51.23
2019-05-05T08:20:58.475Z,61.50
2019-05-05T08:23:32.537Z,39.37
2019-05-05T08:26:09.488Z,43.90
2019-05-05T08:28:39.989Z,47.20
2019-05-05T08:31:18.815Z,51.13
2019-05-05T08:33:47.229Z,44.33
2019-05-05T08:36:15.713Z,39.70
2019-05-05T08:38:44.288Z,41.77
2019-05-05T08:41:13.917Z,45.83
2019-05-05T08:43:44.088Z,38.93
2019-05-05T08:46:14.384Z,43.57
2019-05-05T08:48:44.740Z,45.43
2019-05-05T08:51:14.128Z,46.97
2019-05-05T08:53:47.881Z,34.40
2019-05-05T08:56:14.576Z,32.80
2019-05-05T08:58:43.824Z,35.73
2019-05-05T09:01:14.734Z,36.23
2019-05-05T09:03:44.326Z,42.30
2019-05-05T09:06:13.756Z,37.10
2019-05-05T09:08:44.088Z,32.57
2019-05-05T09:11:14.055Z,30.40
2019-05-05T09:13:44.652Z,32.27
2019-05-05T09:16:14.567Z,32.20
2019-05-05T09:18:48.288Z,28.50
2019-05-05T09:21:16.825Z,29.73
2019-05-05T09:23:59.135Z,23.27
2019-05-05T09:26:34.418Z,36.80
2019-05-05T09:29:24.257Z,25.20
2019-05-05T09:31:54.016Z,17.77
2019-05-05T09:34:23.998Z,20.67
2019-05-05T09:36:54.436Z,32.37
2019-05-05T09:39:23.984Z,17.20
2019-05-05T09:41:53.601Z,24.43
2019-05-05T09:44:24.071Z,17.07
2019-05-05T09:46:53.828Z,18.70
2019-05-05T09:49:24.472Z,18.57
2019-05-05T09:51:54.468Z,18.17
2019-05-05T09:54:24.296Z,24.27
2019-05-05T09:56:53.751Z,28.47
2019-05-05T09:59:24.036Z,29.57
2019-05-05T10:01:53.814Z,27.50
2019-05-05T10:04:24.323Z,22.00
2019-05-05T10:06:52.934Z,25.77
2019-05-05T10:09:21.543Z,24.77
2019-05-05T10:11:49.995Z,27.30
2019-05-05T10:14:18.425Z,21.73
2019-05-05T10:16:46.823Z,20.20
2019-05-05T10:19:15.260Z,20.30
2019-05-05T10:21:44.457Z,23.93
2019-05-05T10:24:28.701Z,21.13
2019-05-05T10:26:50.367Z,24.72
2019-05-05T10:29:18.781Z,20.53
2019-05-05T10:31:47.271Z,22.15
2019-05-05T10:34:17.322Z,18.00
2019-05-05T10:36:45.958Z,21.53
2019-05-05T10:39:25.157Z,17.57
2019-05-05T10:41:56.185Z,14.93
2019-05-05T10:44:23.887Z,24.27
2019-05-05T10:46:53.901Z,18.20
2019-05-05T10:49:24.384Z,15.10
2019-05-05T10:51:54.344Z,18.40
2019-05-05T10:54:23.653Z,23.83
2019-05-05T10:56:52.160Z,17.97
2019-05-05T10:59:20.579Z,18.30
2019-05-05T11:01:49.079Z,13.43
2019-05-05T11:04:17.573Z,17.63
2019-05-05T11:06:46.077Z,15.77
2019-05-05T11:09:14.537Z,18.07
2019-05-05T11:11:43.843Z,21.73
2019-05-05T11:14:14.168Z,15.20
2019-05-05T11:16:43.881Z,15.03
2019-05-05T11:19:13.665Z,14.27
2019-05-05T11:21:43.543Z,14.70
2019-05-05T11:24:12.214Z,13.73
2019-05-05T11:26:40.622Z,11.53
2019-05-05T11:29:09.056Z,17.97
2019-05-05T11:31:37.474Z,17.30
2019-05-05T11:34:14.073Z,12.17
2019-05-05T11:36:54.386Z,16.63
2019-05-05T11:39:23.527Z,23.18
2019-05-05T11:41:51.945Z,9.20
2019-05-05T11:44:20.358Z,8.97
2019-05-05T11:46:48.762Z,10.80
2019-05-05T11:49:17.180Z,15.33
2019-05-05T11:51:45.595Z,10.63
2019-05-05T11:54:14.209Z,11.43
2019-05-05T11:56:44.686Z,9.37
2019-05-05T11:59:14.449Z,9.03
2019-05-05T12:01:44.053Z,15.57
2019-05-05T12:04:14.936Z,8.60
2019-05-05T12:06:44.255Z,8.93
2019-05-05T12:09:14.474Z,7.07
2019-05-05T12:11:43.878Z,12.03
2019-05-05T12:14:14.345Z,12.93
2019-05-05T12:16:43.871Z,11.23
2019-05-05T12:19:13.708Z,7.30
2019-05-05T12:21:44.216Z,8.83
2019-05-05T12:24:14.442Z,8.97
2019-05-05T12:26:47.515Z,16.60
2019-05-05T12:29:15.912Z,12.80
2019-05-05T12:31:45.975Z,9.60
2019-05-05T12:34:14.543Z,13.67
2019-05-05T12:36:44.512Z,10.00
2019-05-05T12:39:14.249Z,10.50
2019-05-05T12:41:42.863Z,13.07
2019-05-05T12:44:14.269Z,13.73
2019-05-05T12:46:47.340Z,8.37
2019-05-05T12:49:15.928Z,15.37
2019-05-05T12:51:44.326Z,14.00
2019-05-05T12:54:14.706Z,9.60
2019-05-05T12:56:44.529Z,14.83
2019-05-05T12:59:14.737Z,9.80
2019-05-05T13:01:44.155Z,11.10
2019-05-05T13:04:14.156Z,20.23
2019-05-05T13:06:44.893Z,9.20
2019-05-05T13:09:13.644Z,9.43
2019-05-05T13:11:43.608Z,14.83
2019-05-05T13:14:14.296Z,13.93
2019-05-05T13:16:52.111Z,15.00
2019-05-05T13:19:14.693Z,7.20
2019-05-05T13:21:44.772Z,7.90
2019-05-05T13:24:23.906Z,8.90
2019-05-05T13:26:54.207Z,10.63
2019-05-05T13:29:24.467Z,12.10
2019-05-05T13:31:54.378Z,7.63
2019-05-05T13:34:22.896Z,8.10
2019-05-05T13:36:51.389Z,8.70
2019-05-05T13:39:19.795Z,11.50
2019-05-05T13:41:48.209Z,11.63
2019-05-05T13:44:18.271Z,14.78
2019-05-05T13:46:46.732Z,13.25
2019-05-05T13:49:19.830Z,11.30
2019-05-05T13:51:48.302Z,15.57
2019-05-05T13:54:16.695Z,12.93
2019-05-05T13:56:45.140Z,17.40
2019-05-05T13:59:14.259Z,7.90
2019-05-05T14:01:44.707Z,13.47
2019-05-05T14:04:12.894Z,9.37
2019-05-05T14:06:41.420Z,8.30
2019-05-05T14:09:09.952Z,10.63
2019-05-05T14:11:38.379Z,7.97
2019-05-05T14:14:06.802Z,9.33
2019-05-05T14:16:35.185Z,8.30
2019-05-05T14:19:04.445Z,11.70
2019-05-05T14:21:33.949Z,8.33
2019-05-05T14:24:04.110Z,8.43
2019-05-05T14:26:35.204Z,12.00
2019-05-05T14:29:04.358Z,7.57
2019-05-05T14:31:37.509Z,8.87
2019-05-05T14:34:10.593Z,5.70
2019-05-05T14:36:40.650Z,7.80
2019-05-05T14:39:11.225Z,5.30
2019-05-05T14:41:39.644Z,8.43
2019-05-05T14:44:08.061Z,9.97
2019-05-05T14:46:36.468Z,6.10
2019-05-05T14:49:05.827Z,9.00
2019-05-05T14:51:34.580Z,13.37
2019-05-05T14:54:04.566Z,10.10
2019-05-05T14:56:36.448Z,10.33
2019-05-05T14:59:03.729Z,7.57
2019-05-05T15:01:34.418Z,7.33
2019-05-05T15:04:04.315Z,13.27
2019-05-05T15:06:37.032Z,8.47
2019-05-05T15:09:10.576Z,11.07
2019-05-05T15:11:49.443Z,11.13
2019-05-05T15:14:17.851Z,15.40
2019-05-05T15:16:46.357Z,16.73
2019-05-05T15:19:14.855Z,9.97
2019-05-05T15:21:44.271Z,7.03
2019-05-05T15:24:13.985Z,7.05
2019-05-05T15:26:51.297Z,10.60
2019-05-05T15:29:12.555Z,12.13
2019-05-05T15:31:41.126Z,13.43
2019-05-05T15:34:09.606Z,10.87
2019-05-05T15:36:38.093Z,9.13
2019-05-05T15:39:07.717Z,10.30
2019-05-05T15:41:36.150Z,12.60
2019-05-05T15:44:04.965Z,9.10
2019-05-05T15:46:33.774Z,13.53
2019-05-05T15:49:04.132Z,13.43
2019-05-05T15:51:34.198Z,10.33
2019-05-05T15:54:03.846Z,7.73
2019-05-05T15:56:34.036Z,7.40
2019-05-05T15:59:02.592Z,9.40
2019-05-05T16:01:31.077Z,8.10
2019-05-05T16:04:03.526Z,9.67
2019-05-05T16:06:34.333Z,8.93
2019-05-05T16:09:06.957Z,10.13
2019-05-05T16:11:35.552Z,11.80
2019-05-05T16:14:05.407Z,9.77
2019-05-05T16:16:38.462Z,16.60
2019-05-05T16:19:14.924Z,10.23
2019-05-05T16:21:45.432Z,11.50
2019-05-05T16:24:15.763Z,8.43
2019-05-05T16:26:44.258Z,13.45
2019-05-05T16:29:14.706Z,9.60
2019-05-05T16:31:43.153Z,13.17
2019-05-05T16:34:11.815Z,9.33
2019-05-05T16:36:40.254Z,10.23
2019-05-05T16:39:09.164Z,14.03
2019-05-05T16:41:37.579Z,9.83
2019-05-05T16:44:06.152Z,8.50
2019-05-05T16:46:34.674Z,12.40
2019-05-05T16:49:03.573Z,6.67
2019-05-05T16:51:35.017Z,12.37
2019-05-05T16:54:05.087Z,9.97
2019-05-05T16:56:33.679Z,8.93
2019-05-05T16:59:02.587Z,8.00
2019-05-05T17:01:31.155Z,5.03
2019-05-05T17:04:09.248Z,7.07
2019-05-05T17:06:29.735Z,7.00
2019-05-05T17:08:58.158Z,6.70
2019-05-05T17:11:26.574Z,7.03
2019-05-05T17:13:56.617Z,7.80
2019-05-05T17:16:29.369Z,8.70
2019-05-05T17:19:14.344Z,7.60
2019-05-05T17:21:47.120Z,7.50
2019-05-05T17:24:15.565Z,11.33
2019-05-05T17:26:44.007Z,9.27
2019-05-05T17:29:14.464Z,11.53
2019-05-05T17:31:44.379Z,6.60
2019-05-05T17:34:13.712Z,9.50
2019-05-05T17:36:42.244Z,9.20
2019-05-05T17:39:10.643Z,9.57
2019-05-05T17:41:49.457Z,5.53
2019-05-05T17:44:19.519Z,10.10
2019-05-05T17:46:53.802Z,6.10
2019-05-05T17:49:32.721Z,9.30
2019-05-05T17:52:08.772Z,9.60
2019-05-05T17:54:38.853Z,9.97
2019-05-05T17:57:07.276Z,10.00
2019-05-05T17:59:35.683Z,14.23
2019-05-05T18:02:04.695Z,9.60
2019-05-05T18:04:33.736Z,9.00
2019-05-05T18:07:16.567Z,13.18
2019-05-05T18:09:53.812Z,8.50
2019-05-05T18:12:26.910Z,8.70
2019-05-05T18:14:59.611Z,14.97
2019-05-05T18:17:28.039Z,12.23
2019-05-05T18:19:56.456Z,9.47
2019-05-05T18:22:24.871Z,10.57
2019-05-05T18:24:54.024Z,4.77
2019-05-05T18:27:23.703Z,7.97
2019-05-05T18:29:54.243Z,7.53
2019-05-05T18:32:23.579Z,12.00
2019-05-05T18:34:54.350Z,8.17
2019-05-05T18:37:24.037Z,10.90
2019-05-05T18:39:54.646Z,8.43
2019-05-05T18:42:24.761Z,8.97
2019-05-05T18:45:03.821Z,7.57
2019-05-05T18:47:33.933Z,21.60
2019-05-05T18:50:04.150Z,11.43
2019-05-05T18:52:34.670Z,9.95
2019-05-05T18:55:05.569Z,15.10
2019-05-05T18:57:34.259Z,11.03
2019-05-05T19:00:05.618Z,10.53
2019-05-05T19:02:47.417Z,11.80
2019-05-05T19:05:35.294Z,14.33
2019-05-05T19:08:08.437Z,11.90
2019-05-05T19:10:36.851Z,8.00
2019-05-05T19:13:05.279Z,13.57
2019-05-05T19:15:34.949Z,9.53
2019-05-05T19:18:06.327Z,10.43
2019-05-05T19:20:47.536Z,13.70
2019-05-05T19:23:15.956Z,14.20
2019-05-05T19:25:44.851Z,9.17
2019-05-05T19:28:14.204Z,11.70
2019-05-05T19:30:44.075Z,9.67
2019-05-05T19:33:13.381Z,11.03
2019-05-05T19:35:45.218Z,11.63
2019-05-05T19:38:15.599Z,14.23
2019-05-05T19:40:43.164Z,7.53
2019-05-05T19:43:11.512Z,5.70
2019-05-05T19:45:39.929Z,13.53
2019-05-05T19:48:08.363Z,10.13
2019-05-05T19:50:50.505Z,8.50
2019-05-05T19:53:24.634Z,13.03
2019-05-05T19:55:54.807Z,14.47
2019-05-05T19:58:23.400Z,17.33
2019-05-05T20:00:52.238Z,16.62
2019-05-05T20:03:20.743Z,12.75
2019-05-05T20:05:49.204Z,11.60
2019-05-05T20:08:17.766Z,5.97
2019-05-05T20:10:46.200Z,11.90
2019-05-05T20:13:14.663Z,11.77
2019-05-05T20:15:47.451Z,10.65
2019-05-05T20:18:15.862Z,12.53
2019-05-05T20:20:44.586Z,18.20
2019-05-05T20:23:13.695Z,9.03
2019-05-05T20:25:42.174Z,10.77
2019-05-05T20:28:10.603Z,12.15
2019-05-05T20:30:39.016Z,7.15
2019-05-05T20:33:09.109Z,11.57
2019-05-05T20:35:39.166Z,11.07
2019-05-05T20:38:14.981Z,11.33
2019-05-05T20:41:01.616Z,20.37
2019-05-05T20:43:30.027Z,14.13
2019-05-05T20:45:58.499Z,21.43
2019-05-05T20:48:26.894Z,14.30
2019-05-05T20:50:55.361Z,9.13
2019-05-05T20:53:24.670Z,11.20
2019-05-05T20:55:54.469Z,8.77
2019-05-05T20:58:23.909Z,13.13
2019-05-05T21:00:52.322Z,12.33
2019-05-05T21:03:20.757Z,12.68
2019-05-05T21:05:49.222Z,15.23
2019-05-05T21:08:17.720Z,11.73
2019-05-05T21:10:46.219Z,12.03
2019-05-05T21:13:14.632Z,10.60
2019-05-05T21:15:45.030Z,17.50
2019-05-05T21:18:14.333Z,10.80
2019-05-05T21:20:42.973Z,12.77
2019-05-05T21:23:14.422Z,14.60
2019-05-05T21:25:44.562Z,9.80
2019-05-05T21:28:14.660Z,10.50
2019-05-05T21:30:43.099Z,14.78
2019-05-05T21:33:11.518Z,8.60
2019-05-05T21:35:39.907Z,11.10
2019-05-05T21:38:08.334Z,9.70
2019-05-05T21:40:36.996Z,10.97
2019-05-05T21:43:05.422Z,13.10
2019-05-05T21:45:34.735Z,12.87
2019-05-05T21:48:04.301Z,15.00
2019-05-05T21:50:34.596Z,17.60
2019-05-05T21:53:24.610Z,18.50
2019-05-05T21:55:57.165Z,6.73
2019-05-05T21:58:27.213Z,14.37
2019-05-05T22:00:59.823Z,13.17
2019-05-05T22:03:37.582Z,11.33
2019-05-05T22:06:06.104Z,16.53
2019-05-05T22:08:35.820Z,10.18
2019-05-05T22:11:04.654Z,10.07
2019-05-05T22:13:36.302Z,15.50
2019-05-05T22:16:04.080Z,7.80
2019-05-05T22:18:32.669Z,20.40
2019-05-05T22:21:05.409Z,14.10
2019-05-05T22:23:33.993Z,13.33
2019-05-05T22:26:04.230Z,13.43
2019-05-05T22:28:34.051Z,15.50
2019-05-05T22:31:04.691Z,11.23
2019-05-05T22:33:34.050Z,11.07
2019-05-05T22:36:04.401Z,9.97
2019-05-05T22:38:33.982Z,18.50
2019-05-05T22:41:02.594Z,18.13
2019-05-05T22:43:31.086Z,10.87
2019-05-05T22:45:59.499Z,14.53
2019-05-05T22:48:27.905Z,11.70
2019-05-05T22:50:56.344Z,21.53
2019-05-05T22:53:24.755Z,10.63
2019-05-05T22:55:53.157Z,10.60
2019-05-05T22:58:23.868Z,16.37
2019-05-05T23:00:51.766Z,13.37
2019-05-05T23:03:27.434Z,19.47
2019-05-05T23:06:04.312Z,9.83
2019-05-05T23:08:34.896Z,11.90
2019-05-05T23:11:04.020Z,16.17
2019-05-05T23:13:33.729Z,16.03
2019-05-05T23:16:06.690Z,19.60
2019-05-05T23:18:35.746Z,11.28
2019-05-05T23:21:15.616Z,11.47
2019-05-05T23:23:59.833Z,19.93
2019-05-05T23:26:43.618Z,13.30
2019-05-05T23:29:11.796Z,17.97
2019-05-05T23:31:40.191Z,21.00
2019-05-05T23:34:08.634Z,9.50
2019-05-05T23:36:37.058Z,13.80
2019-05-05T23:39:07.397Z,17.43
2019-05-05T23:41:37.224Z,15.80
2019-05-05T23:44:06.121Z,13.93
2019-05-05T23:46:34.964Z,9.20
2019-05-05T23:49:04.282Z,14.40
2019-05-05T23:51:34.642Z,10.10
2019-05-05T23:54:04.260Z,10.50
2019-05-05T23:56:34.783Z,8.98
2019-05-05T23:59:04.258Z,17.10
